createdAt,value
2019-03-21T00:01:16.101Z,0.60
2019-03-21T00:04:30.143Z,0.66
2019-03-21T00:07:44.382Z,0.71
2019-03-21T00:11:41.779Z,0.69
2019-03-21T00:15:24.388Z,0.71
2019-03-21T00:18:38.374Z,0.66
2019-03-21T00:21:52.649Z,0.44
2019-03-21T00:25:07.799Z,0.46
2019-03-21T00:28:21.875Z,0.37
2019-03-21T00:31:36.168Z,0.40
2019-03-21T00:34:50.166Z,0.45
2019-03-21T00:38:04.262Z,0.39
2019-03-21T00:41:18.284Z,0.45
2019-03-21T00:44:32.673Z,0.40
2019-03-21T00:47:46.732Z,0.39
2019-03-21T00:51:00.735Z,0.37
2019-03-21T00:54:15.054Z,0.29
2019-03-21T00:57:29.048Z,0.30
2019-03-21T01:00:46.118Z,0.24
2019-03-21T01:04:00.096Z,0.11
2019-03-21T01:07:14.078Z,0.23
2019-03-21T01:10:28.066Z,0.34
2019-03-21T01:13:42.056Z,0.43
2019-03-21T01:16:56.150Z,0.50
2019-03-21T01:20:12.096Z,0.50
2019-03-21T01:23:26.098Z,0.35
2019-03-21T01:26:40.174Z,0.28
2019-03-21T01:29:54.150Z,0.24
2019-03-21T01:33:08.140Z,0.16
2019-03-21T01:36:23.132Z,0.14
2019-03-21T01:39:37.112Z,0.11
2019-03-21T01:42:51.102Z,0.11
2019-03-21T01:46:07.969Z,0.12
2019-03-21T01:49:22.495Z,0.15
2019-03-21T01:52:36.493Z,0.08
2019-03-21T01:55:50.476Z,0.05
2019-03-21T01:59:04.464Z,-0.11
2019-03-21T02:02:18.496Z,-0.01
2019-03-21T02:05:32.477Z,0.05
2019-03-21T02:08:46.569Z,0.01
2019-03-21T02:12:00.597Z,0.04
2019-03-21T02:15:14.800Z,-0.03
2019-03-21T02:18:28.839Z,-0.02
2019-03-21T02:21:42.813Z,-0.05
2019-03-21T02:24:57.424Z,0.00
2019-03-21T02:28:11.546Z,-0.13
2019-03-21T02:31:25.886Z,-0.13
2019-03-21T02:34:40.158Z,-0.06
2019-03-21T02:37:54.154Z,0.01
2019-03-21T02:41:08.901Z,0.00
2019-03-21T02:44:23.173Z,-0.09
2019-03-21T02:47:37.448Z,-0.12
2019-03-21T02:50:51.451Z,-0.07
2019-03-21T02:54:05.436Z,-0.09
2019-03-21T02:57:19.667Z,-0.19
2019-03-21T03:00:33.886Z,-0.24
2019-03-21T03:03:47.897Z,-0.27
2019-03-21T03:07:01.899Z,-0.20
2019-03-21T03:10:19.145Z,-0.16
2019-03-21T03:13:33.136Z,-0.14
2019-03-21T03:16:47.216Z,-0.15
2019-03-21T03:20:01.226Z,-0.24
2019-03-21T03:23:15.233Z,-0.29
2019-03-21T03:26:29.200Z,-0.27
2019-03-21T03:29:43.218Z,-0.24
2019-03-21T03:32:57.299Z,-0.28
2019-03-21T03:36:11.792Z,-0.32
2019-03-21T03:39:25.782Z,-0.30
2019-03-21T03:42:40.245Z,-0.26
2019-03-21T03:45:54.355Z,-0.25
2019-03-21T03:49:08.353Z,-0.26
2019-03-21T03:52:22.350Z,-0.28
2019-03-21T03:55:36.706Z,-0.40
2019-03-21T03:58:51.677Z,-0.64
2019-03-21T04:02:05.783Z,-0.66
2019-03-21T04:05:20.261Z,-0.56
2019-03-21T04:08:34.672Z,-0.52
2019-03-21T04:11:48.877Z,-0.51
2019-03-21T04:15:03.426Z,-0.52
2019-03-21T04:18:17.747Z,-0.58
2019-03-21T04:21:32.085Z,-0.54
2019-03-21T04:24:46.083Z,-0.53
2019-03-21T04:28:00.980Z,-0.47
2019-03-21T04:31:14.953Z,-0.55
2019-03-21T04:34:29.507Z,-0.60
2019-03-21T04:37:43.556Z,-0.60
2019-03-21T04:40:57.531Z,-0.62
2019-03-21T04:44:11.513Z,-0.66
2019-03-21T04:47:25.493Z,-0.61
2019-03-21T04:50:39.500Z,-0.68
2019-03-21T04:53:53.743Z,-0.79
2019-03-21T04:57:07.785Z,-0.70
2019-03-21T05:00:24.503Z,-0.71
2019-03-21T05:03:38.794Z,-0.66
2019-03-21T05:06:52.751Z,-0.66
2019-03-21T05:10:08.804Z,-0.84
2019-03-21T05:13:22.779Z,-0.78
2019-03-21T05:16:36.743Z,-0.70
2019-03-21T05:19:50.734Z,-0.66
2019-03-21T05:23:04.717Z,-0.66
2019-03-21T05:26:19.080Z,-0.73
2019-03-21T05:29:33.352Z,-0.71
2019-03-21T05:32:47.429Z,-0.69
2019-03-21T05:36:01.445Z,-0.71
2019-03-21T05:39:15.435Z,-0.69
2019-03-21T05:42:29.640Z,-0.76
2019-03-21T05:45:43.837Z,-0.74
2019-03-21T05:48:57.860Z,-0.68
2019-03-21T05:52:12.013Z,-0.64
2019-03-21T05:55:26.889Z,-0.60
2019-03-21T05:58:40.956Z,-0.56
2019-03-21T06:01:54.991Z,-0.65
2019-03-21T06:05:09.125Z,-0.64
2019-03-21T06:08:29.115Z,-0.60
2019-03-21T06:11:46.133Z,-0.56
2019-03-21T06:15:00.745Z,-0.62
2019-03-21T06:18:30.758Z,-0.77
2019-03-21T06:22:24.683Z,-0.63
2019-03-21T06:25:58.850Z,-0.58
2019-03-21T06:29:12.822Z,-0.69
2019-03-21T06:32:27.142Z,-0.65
2019-03-21T06:35:41.119Z,-0.54
2019-03-21T06:38:55.365Z,-0.44
2019-03-21T06:42:09.660Z,-0.31
2019-03-21T06:45:23.747Z,-0.17
2019-03-21T06:48:37.745Z,-0.04
2019-03-21T06:51:52.292Z,0.07
2019-03-21T06:55:06.274Z,0.14
2019-03-21T06:58:20.285Z,0.19
2019-03-21T07:01:34.274Z,0.27
2019-03-21T07:04:48.502Z,0.35
2019-03-21T07:08:02.589Z,0.46
2019-03-21T07:11:16.573Z,0.61
2019-03-21T07:14:30.533Z,0.76
2019-03-21T07:17:45.296Z,0.91
2019-03-21T07:21:01.110Z,1.09
2019-03-21T07:24:15.165Z,1.23
2019-03-21T07:27:29.164Z,1.35
2019-03-21T07:30:43.158Z,1.54
2019-03-21T07:33:57.423Z,1.75
2019-03-21T07:37:11.703Z,1.98
2019-03-21T07:40:25.687Z,2.26
2019-03-21T07:43:39.656Z,2.50
2019-03-21T07:46:53.667Z,2.77
2019-03-21T07:50:09.240Z,3.05
2019-03-21T07:53:23.544Z,3.37
2019-03-21T07:56:37.537Z,3.69
2019-03-21T07:59:51.516Z,4.03
2019-03-21T08:03:05.508Z,4.37
2019-03-21T08:06:19.824Z,4.68
2019-03-21T08:09:33.860Z,4.98
2019-03-21T08:12:47.792Z,5.33
2019-03-21T08:16:01.789Z,5.53
2019-03-21T08:19:15.786Z,5.78
2019-03-21T08:22:29.770Z,6.00
2019-03-21T08:25:43.744Z,6.30
2019-03-21T08:28:57.730Z,6.58
2019-03-21T08:32:11.728Z,6.83
2019-03-21T08:35:25.839Z,7.02
2019-03-21T08:38:39.966Z,7.15
2019-03-21T08:41:54.342Z,7.42
2019-03-21T08:45:08.521Z,7.71
2019-03-21T08:48:22.520Z,8.03
2019-03-21T08:51:37.035Z,8.22
2019-03-21T08:54:51.021Z,8.36
2019-03-21T08:58:05.000Z,8.64
2019-03-21T09:01:18.975Z,8.82
2019-03-21T09:04:32.959Z,8.95
2019-03-21T09:07:46.956Z,9.15
2019-03-21T09:11:01.324Z,9.27
2019-03-21T09:14:15.312Z,9.36
2019-03-21T09:17:29.293Z,9.68
2019-03-21T09:20:43.283Z,9.93
2019-03-21T09:23:57.536Z,10.15
2019-03-21T09:27:11.622Z,10.37
2019-03-21T09:30:25.858Z,10.73
2019-03-21T09:33:40.421Z,11.15
2019-03-21T09:36:54.398Z,11.39
2019-03-21T09:40:09.715Z,11.52
2019-03-21T09:43:24.009Z,11.69
2019-03-21T09:46:37.979Z,11.97
2019-03-21T09:49:51.956Z,12.29
2019-03-21T09:53:06.082Z,12.62
2019-03-21T09:56:20.267Z,12.97
2019-03-21T09:59:34.276Z,13.31
2019-03-21T10:02:48.544Z,13.77
2019-03-21T10:06:02.793Z,13.98
2019-03-21T10:09:17.080Z,13.97
2019-03-21T10:12:31.079Z,14.02
2019-03-21T10:15:45.347Z,14.16
2019-03-21T10:18:59.335Z,14.50
2019-03-21T10:22:13.305Z,14.54
2019-03-21T10:25:27.315Z,14.70
2019-03-21T10:28:41.551Z,14.75
2019-03-21T10:31:55.546Z,14.85
2019-03-21T10:35:09.627Z,15.29
2019-03-21T10:38:23.730Z,15.62
2019-03-21T10:41:37.984Z,15.73
2019-03-21T10:44:52.272Z,15.61
2019-03-21T10:48:06.799Z,15.84
2019-03-21T10:51:20.815Z,15.89
2019-03-21T10:54:34.817Z,16.02
2019-03-21T10:57:48.806Z,15.97
2019-03-21T11:01:03.120Z,16.20
2019-03-21T11:04:17.118Z,16.96
2019-03-21T11:07:31.454Z,16.78
2019-03-21T11:10:47.193Z,16.99
2019-03-21T11:14:01.339Z,17.28
2019-03-21T11:17:15.331Z,16.63
2019-03-21T11:20:31.414Z,17.26
2019-03-21T11:23:45.397Z,17.08
2019-03-21T11:26:59.798Z,17.43
2019-03-21T11:30:17.507Z,17.91
2019-03-21T11:33:31.479Z,17.97
2019-03-21T11:36:45.708Z,18.36
2019-03-21T11:39:59.985Z,18.64
2019-03-21T11:43:15.865Z,18.58
2019-03-21T11:46:30.100Z,18.43
2019-03-21T11:49:44.179Z,18.68
2019-03-21T11:52:58.406Z,18.87
2019-03-21T11:56:13.174Z,19.23
2019-03-21T11:59:41.220Z,19.77
2019-03-21T12:02:43.221Z,19.21
2019-03-21T12:05:57.310Z,19.25
2019-03-21T12:09:11.388Z,19.77
2019-03-21T12:12:25.753Z,19.76
2019-03-21T12:15:39.706Z,20.09
2019-03-21T12:18:53.715Z,20.93
2019-03-21T12:22:07.726Z,21.28
2019-03-21T12:25:21.720Z,21.41
2019-03-21T12:28:36.152Z,21.00
2019-03-21T12:31:50.184Z,21.07
2019-03-21T12:35:05.160Z,21.16
2019-03-21T12:38:19.136Z,21.02
2019-03-21T12:41:33.410Z,20.84
2019-03-21T12:44:49.444Z,20.61
2019-03-21T12:48:04.948Z,20.38
2019-03-21T12:51:18.952Z,20.45
2019-03-21T12:54:33.241Z,20.63
2019-03-21T12:57:47.363Z,20.58
2019-03-21T13:01:01.379Z,19.95
2019-03-21T13:04:15.524Z,20.12
2019-03-21T13:07:29.507Z,20.36
2019-03-21T13:10:43.720Z,20.38
2019-03-21T13:13:57.728Z,20.09
2019-03-21T13:17:11.728Z,20.93
2019-03-21T13:20:25.712Z,20.75
2019-03-21T13:23:39.707Z,20.70
2019-03-21T13:26:53.715Z,20.39
2019-03-21T13:30:08.269Z,20.72
2019-03-21T13:33:22.268Z,21.13
2019-03-21T13:36:36.371Z,20.69
2019-03-21T13:39:50.358Z,21.13
2019-03-21T13:43:04.671Z,21.25
2019-03-21T13:46:18.700Z,21.48
2019-03-21T13:49:33.239Z,21.15
2019-03-21T13:52:47.251Z,21.12
2019-03-21T13:56:01.492Z,21.11
2019-03-21T13:59:15.515Z,21.29
2019-03-21T14:02:29.504Z,21.70
2019-03-21T14:05:43.606Z,21.94
2019-03-21T14:08:57.863Z,21.56
2019-03-21T14:12:11.856Z,20.90
2019-03-21T14:15:26.474Z,20.89
2019-03-21T14:18:40.478Z,21.30
2019-03-21T14:21:54.743Z,21.55
2019-03-21T14:25:09.289Z,21.26
2019-03-21T14:28:23.599Z,21.08
2019-03-21T14:31:37.624Z,21.64
2019-03-21T14:34:51.863Z,21.60
2019-03-21T14:38:06.202Z,21.43
2019-03-21T14:41:20.296Z,21.10
2019-03-21T14:44:34.296Z,21.18
2019-03-21T14:47:48.316Z,21.18
2019-03-21T14:51:02.332Z,21.17
2019-03-21T14:54:16.344Z,20.97
2019-03-21T14:57:30.330Z,20.92
2019-03-21T15:00:44.347Z,20.51
2019-03-21T15:03:58.318Z,20.33
2019-03-21T15:07:12.620Z,20.56
2019-03-21T15:10:26.752Z,20.60
2019-03-21T15:13:40.756Z,20.41
2019-03-21T15:16:54.743Z,20.69
2019-03-21T15:20:11.232Z,20.67
2019-03-21T15:23:26.007Z,20.49
2019-03-21T15:26:40.165Z,20.01
2019-03-21T15:29:54.230Z,19.75
2019-03-21T15:33:08.307Z,20.17
2019-03-21T15:36:22.355Z,20.43
2019-03-21T15:39:36.929Z,20.21
2019-03-21T15:42:51.040Z,20.42
2019-03-21T15:46:06.015Z,20.48
2019-03-21T15:49:20.583Z,20.62
2019-03-21T15:52:34.632Z,20.25
2019-03-21T15:55:49.100Z,20.39
2019-03-21T15:59:03.243Z,20.34
2019-03-21T16:02:17.760Z,20.14
2019-03-21T16:05:31.910Z,19.57
2019-03-21T16:08:46.724Z,19.95
2019-03-21T16:12:00.834Z,20.11
2019-03-21T16:15:14.843Z,19.47
2019-03-21T16:18:28.884Z,19.24
2019-03-21T16:21:42.938Z,19.14
2019-03-21T16:24:57.014Z,18.39
2019-03-21T16:28:11.059Z,18.12
2019-03-21T16:31:25.405Z,18.02
2019-03-21T16:34:39.459Z,17.77
2019-03-21T16:37:53.509Z,17.56
2019-03-21T16:41:07.617Z,17.24
2019-03-21T16:44:21.621Z,16.94
2019-03-21T16:47:35.619Z,16.73
2019-03-21T16:50:49.625Z,16.55
2019-03-21T16:54:16.155Z,16.61
2019-03-21T16:57:20.354Z,16.69
2019-03-21T17:00:34.479Z,16.44
2019-03-21T17:03:48.483Z,16.29
2019-03-21T17:07:02.568Z,16.17
2019-03-21T17:10:17.086Z,16.01
2019-03-21T17:13:31.108Z,15.86
2019-03-21T17:16:45.384Z,15.54
2019-03-21T17:19:59.656Z,15.25
2019-03-21T17:23:13.682Z,14.94
2019-03-21T17:26:27.797Z,14.73
2019-03-21T17:29:42.113Z,14.46
2019-03-21T17:32:56.100Z,14.13
2019-03-21T17:36:10.109Z,13.85
2019-03-21T17:39:24.416Z,13.53
2019-03-21T17:42:38.441Z,13.11
2019-03-21T17:45:52.540Z,12.73
2019-03-21T17:49:06.533Z,12.55
2019-03-21T17:52:20.527Z,12.32
2019-03-21T17:55:34.635Z,12.06
2019-03-21T17:58:48.744Z,11.87
2019-03-21T18:02:03.504Z,11.73
2019-03-21T18:05:17.698Z,11.54
2019-03-21T18:08:31.704Z,11.38
2019-03-21T18:11:45.782Z,11.22
2019-03-21T18:15:00.600Z,11.03
2019-03-21T18:18:14.872Z,10.86
2019-03-21T18:21:28.865Z,10.53
2019-03-21T18:24:53.374Z,10.09
2019-03-21T18:27:59.420Z,9.89
2019-03-21T18:31:13.400Z,9.66
2019-03-21T18:34:27.504Z,9.44
2019-03-21T18:37:41.722Z,9.25
2019-03-21T18:40:55.697Z,9.15
2019-03-21T18:44:10.111Z,9.03
2019-03-21T18:47:24.125Z,8.88
2019-03-21T18:50:38.401Z,8.66
2019-03-21T18:53:52.401Z,8.33
2019-03-21T18:57:06.458Z,8.13
2019-03-21T19:00:21.106Z,8.04
2019-03-21T19:03:35.332Z,7.96
2019-03-21T19:06:49.360Z,7.71
2019-03-21T19:10:04.550Z,7.53
2019-03-21T19:13:18.782Z,7.37
2019-03-21T19:16:33.130Z,7.29
2019-03-21T19:19:47.433Z,7.14
2019-03-21T19:23:01.432Z,6.85
2019-03-21T19:26:15.415Z,6.70
2019-03-21T19:29:29.437Z,6.65
2019-03-21T19:32:43.431Z,6.64
2019-03-21T19:35:57.508Z,6.60
2019-03-21T19:39:11.495Z,6.47
2019-03-21T19:42:25.767Z,6.34
2019-03-21T19:45:39.850Z,6.30
2019-03-21T19:48:53.858Z,6.30
2019-03-21T19:52:07.888Z,6.17
2019-03-21T19:55:30.662Z,5.89
2019-03-21T19:58:38.255Z,5.75
2019-03-21T20:01:52.524Z,5.75
2019-03-21T20:05:07.441Z,5.67
2019-03-21T20:08:21.438Z,5.55
2019-03-21T20:11:35.456Z,5.43
2019-03-21T20:14:49.515Z,5.24
2019-03-21T20:18:03.645Z,5.11
2019-03-21T20:21:18.287Z,5.12
2019-03-21T20:24:32.274Z,5.10
2019-03-21T20:27:46.358Z,5.10
2019-03-21T20:31:00.343Z,4.96
2019-03-21T20:34:14.385Z,4.77
2019-03-21T20:37:28.414Z,4.75
2019-03-21T20:40:42.431Z,4.67
2019-03-21T20:43:56.415Z,4.64
2019-03-21T20:47:10.504Z,4.63
2019-03-21T20:50:24.519Z,4.50
2019-03-21T20:53:38.818Z,4.33
2019-03-21T20:56:52.914Z,4.30
2019-03-21T21:00:10.355Z,4.29
2019-03-21T21:03:24.480Z,4.33
2019-03-21T21:06:38.563Z,4.31
2019-03-21T21:09:52.949Z,4.23
2019-03-21T21:13:07.225Z,4.07
2019-03-21T21:16:21.236Z,4.07
2019-03-21T21:19:35.240Z,4.05
2019-03-21T21:22:49.225Z,3.96
2019-03-21T21:26:05.792Z,3.94
2019-03-21T21:29:19.353Z,3.99
2019-03-21T21:32:33.477Z,4.00
2019-03-21T21:35:47.751Z,3.94
2019-03-21T21:39:02.170Z,3.77
2019-03-21T21:42:16.371Z,3.71
2019-03-21T21:45:30.350Z,3.67
2019-03-21T21:48:44.629Z,3.59
2019-03-21T21:51:58.883Z,3.64
2019-03-21T21:55:13.164Z,3.61
2019-03-21T21:58:27.155Z,3.56
2019-03-21T22:01:41.400Z,3.50
2019-03-21T22:04:55.664Z,3.49
2019-03-21T22:08:09.644Z,3.50
2019-03-21T22:11:23.986Z,3.47
2019-03-21T22:14:37.970Z,3.28
2019-03-21T22:17:52.241Z,3.14
2019-03-21T22:21:06.219Z,3.21
2019-03-21T22:24:20.483Z,3.14
2019-03-21T22:27:34.601Z,3.04
2019-03-21T22:30:48.601Z,3.02
2019-03-21T22:34:02.801Z,3.03
2019-03-21T22:37:17.064Z,3.06
2019-03-21T22:40:31.300Z,3.08
2019-03-21T22:43:45.292Z,2.97
2019-03-21T22:46:59.261Z,2.90
2019-03-21T22:50:15.100Z,2.85
2019-03-21T22:53:30.234Z,2.69
2019-03-21T22:56:44.355Z,2.66
2019-03-21T22:59:58.344Z,2.72
2019-03-21T23:03:12.328Z,2.78
2019-03-21T23:06:26.328Z,2.67
2019-03-21T23:09:40.605Z,2.60
2019-03-21T23:12:55.002Z,2.64
2019-03-21T23:16:08.988Z,2.66
2019-03-21T23:19:22.980Z,2.55
2019-03-21T23:22:37.082Z,2.61
2019-03-21T23:25:51.302Z,2.59
2019-03-21T23:29:05.567Z,2.54
2019-03-21T23:32:19.549Z,2.50
2019-03-21T23:35:33.890Z,2.45
2019-03-21T23:38:47.880Z,2.41
2019-03-21T23:42:02.207Z,2.24
2019-03-21T23:45:16.201Z,2.29
2019-03-21T23:48:30.179Z,2.38
2019-03-21T23:51:44.190Z,2.39
2019-03-21T23:54:58.211Z,2.41
2019-03-21T23:58:12.479Z,2.39
